Time;durP1;ratioP1;P1;durP2;ratioP2;P2;SDS_P1;SDS_P2;PMS_P1;PMS_P2;Temp;Humidity;BMP_temperature;BMP_pressure;BME280_temperature;BME280_humidity;BME280_pressure;Samples;Min_cycle;Max_cycle;Signal;HPM_P1;HPM_P2
2021/01/01 00:01:08;;;;;;;57.17;40.97;;;2.90;99.90;;;;;;4844858;29;20556;-95
2021/01/01 00:03:38;;;;;;;50.37;36.57;;;3.00;99.90;;;;;;4852599;29;21307;-96
2021/01/01 00:45:12;;;;;;;47.93;33.07;;;2.70;99.90;;;;;;4881485;29;20971;-96
2021/01/01 10:44:53;;;;;;;10.40;8.70;;;4.20;99.90;;;;;;4866658;29;20529;-92
2021/01/01 10:47:23;;;;;;;14.27;9.50;;;4.10;99.90;;;;;;4869212;29;20572;-90
2021/01/01 10:49:52;;;;;;;12.37;9.57;;;4.10;99.90;;;;;;4860066;29;20984;-91
2021/01/01 10:52:18;;;;;;;11.30;8.50;;;4.10;99.90;;;;;;4864044;29;20454;-90
2021/01/01 10:54:43;;;;;;;11.10;7.80;;;4.00;99.90;;;;;;4864226;29;20884;-90
2021/01/01 10:57:12;;;;;;;10.70;8.27;;;3.90;99.90;;;;;;4863517;29;20568;-91
2021/01/01 10:59:37;;;;;;;11.70;8.60;;;3.80;99.90;;;;;;4861434;29;20245;-92
2021/01/01 11:02:03;;;;;;;12.57;9.77;;;3.70;99.90;;;;;;4868111;29;20501;-92
2021/01/01 11:04:29;;;;;;;10.70;9.00;;;3.60;99.90;;;;;;4868938;29;20190;-89
2021/01/01 11:06:54;;;;;;;14.03;10.83;;;3.70;99.90;;;;;;4867379;29;20292;-92
2021/01/01 11:09:23;;;;;;;10.80;8.50;;;3.90;99.90;;;;;;4865144;29;20267;-89
2021/01/01 11:11:48;;;;;;;11.40;8.80;;;4.00;99.90;;;;;;4862319;29;20196;-89
2021/01/01 11:14:28;;;;;;;11.90;8.60;;;4.10;99.90;;;;;;4864310;29;20980;-92
2021/01/01 12:24:14;;;;;;;8.30;6.80;;;3.80;99.90;;;;;;4864340;29;20458;-89
2021/01/01 12:27:20;;;;;;;8.53;6.67;;;3.90;99.90;;;;;;4866487;29;20473;-90
2021/01/01 12:29:57;;;;;;;8.33;6.70;;;4.00;99.90;;;;;;4862915;29;20894;-91
2021/01/01 12:32:24;;;;;;;9.53;7.17;;;4.10;99.90;;;;;;4863764;29;20482;-93
2021/01/01 12:34:51;;;;;;;9.50;7.10;;;4.10;99.90;;;;;;4861061;29;20521;-90
2021/01/01 12:37:18;;;;;;;9.20;6.87;;;4.10;99.90;;;;;;4849854;29;20486;-91
2021/01/01 12:42:26;;;;;;;9.57;7.60;;;4.00;99.90;;;;;;4861983;29;20457;-90
2021/01/01 12:44:52;;;;;;;8.93;7.43;;;4.00;99.90;;;;;;4867183;29;20601;-92
2021/01/01 12:47:18;;;;;;;9.00;6.50;;;4.20;99.90;;;;;;4860610;29;20466;-92
2021/01/01 12:49:45;;;;;;;8.83;7.30;;;4.30;99.90;;;;;;4863366;29;20193;-92
2021/01/01 12:52:12;;;;;;;9.97;7.93;;;4.30;99.90;;;;;;4858297;29;20249;-91
2021/01/01 12:54:39;;;;;;;8.80;6.60;;;4.40;99.90;;;;;;4861962;29;20935;-92
2021/01/01 12:57:13;;;;;;;10.03;7.43;;;4.40;99.90;;;;;;4862460;29;20458;-92
2021/01/01 12:59:47;;;;;;;11.37;8.70;;;4.50;99.90;;;;;;4867224;29;20504;-91
2021/01/01 13:02:32;;;;;;;9.30;6.90;;;4.50;99.90;;;;;;4867926;29;20827;-94
2021/01/01 13:04:58;;;;;;;9.03;7.00;;;4.50;99.90;;;;;;4867333;29;20457;-92
2021/01/01 13:07:29;;;;;;;11.43;7.20;;;4.60;99.90;;;;;;4867930;29;20194;-92
2021/01/01 13:10:03;;;;;;;8.43;7.63;;;4.60;99.90;;;;;;4883337;29;20197;-93
2021/01/01 13:12:39;;;;;;;8.87;6.80;;;4.60;99.90;;;;;;4869345;29;20466;-95
2021/01/01 13:15:06;;;;;;;8.30;6.93;;;4.60;99.90;;;;;;4868584;29;20576;-93
2021/01/01 13:17:32;;;;;;;9.30;7.10;;;4.60;99.90;;;;;;4865490;29;20474;-92
2021/01/01 13:19:58;;;;;;;8.97;7.80;;;4.40;99.90;;;;;;4869586;29;20496;-92
2021/01/01 13:22:24;;;;;;;7.67;6.70;;;4.40;99.90;;;;;;4868166;29;20465;-93
2021/01/01 13:24:53;;;;;;;8.67;7.13;;;4.20;99.90;;;;;;4866866;29;20517;-92
2021/01/01 13:27:43;;;;;;;9.80;8.07;;;4.20;99.90;;;;;;4866508;29;20446;-92
2021/01/01 13:30:11;;;;;;;10.53;8.50;;;4.20;99.90;;;;;;4864809;29;20477;-91
2021/01/01 13:32:37;;;;;;;9.70;7.53;;;4.20;99.90;;;;;;4865622;29;20591;-93
2021/01/01 13:35:03;;;;;;;10.70;7.93;;;4.30;99.90;;;;;;4861848;29;20537;-92
2021/01/01 13:37:30;;;;;;;12.10;9.03;;;4.30;99.90;;;;;;4866126;29;20276;-93
2021/01/01 13:40:04;;;;;;;9.10;6.80;;;4.30;99.90;;;;;;4868051;29;20493;-94
2021/01/01 13:42:39;;;;;;;9.47;7.13;;;4.30;99.90;;;;;;4867276;29;20453;-91
2021/01/01 13:45:05;;;;;;;11.40;7.27;;;4.30;99.90;;;;;;4866272;29;20813;-93
2021/01/01 13:47:32;;;;;;;8.37;6.67;;;4.20;99.90;;;;;;4863741;29;20644;-92
2021/01/01 13:49:58;;;;;;;8.67;6.50;;;4.30;99.90;;;;;;4866134;29;20540;-92
2021/01/01 13:52:24;;;;;;;8.90;7.30;;;4.40;99.90;;;;;;4870215;29;20999;-95
2021/01/01 13:54:49;;;;;;;8.13;7.03;;;4.40;99.90;;;;;;4869270;29;20197;-92
2021/01/01 13:57:15;;;;;;;8.53;6.20;;;4.40;99.90;;;;;;4869897;29;20476;-94
2021/01/01 13:59:41;;;;;;;10.33;6.47;;;4.30;99.90;;;;;;4869308;29;20228;-96
2021/01/01 14:02:07;;;;;;;7.23;5.80;;;4.30;99.90;;;;;;4869823;29;20701;-94
2021/01/01 14:04:33;;;;;;;8.23;6.20;;;4.30;99.90;;;;;;4868280;29;20237;-95
2021/01/01 14:06:59;;;;;;;8.03;6.43;;;4.40;99.90;;;;;;4866669;29;20579;-95
2021/01/01 14:09:25;;;;;;;7.20;6.20;;;4.40;99.90;;;;;;4851204;29;20469;-94
2021/01/01 14:11:51;;;;;;;8.13;6.50;;;4.40;99.90;;;;;;4854529;29;20438;-95
2021/01/01 14:14:18;;;;;;;8.90;6.90;;;4.50;99.90;;;;;;4886284;29;20186;-96
2021/01/01 14:16:52;;;;;;;8.27;6.20;;;4.50;99.90;;;;;;4866516;29;20453;-94
2021/01/01 14:19:18;;;;;;;7.60;6.57;;;4.50;99.90;;;;;;4865071;29;20482;-92
2021/01/01 14:21:44;;;;;;;8.67;6.73;;;4.40;99.90;;;;;;4867450;29;20512;-94
2021/01/01 14:24:18;;;;;;;8.30;6.80;;;4.40;99.90;;;;;;4871685;29;20462;-95
2021/01/01 14:26:56;;;;;;;8.87;6.93;;;4.40;99.90;;;;;;4865900;29;20441;-92
2021/01/01 14:29:21;;;;;;;9.07;6.80;;;4.40;99.90;;;;;;4865753;29;20877;-93
2021/01/01 14:32:16;;;;;;;8.80;6.73;;;4.50;99.90;;;;;;4864393;29;20536;-93
2021/01/01 14:34:45;;;;;;;9.07;6.97;;;4.50;99.90;;;;;;4868650;29;20196;-91
2021/01/01 14:39:50;;;;;;;8.47;7.03;;;4.40;99.90;;;;;;4871671;29;20485;-93
2021/01/01 14:44:50;;;;;;;8.57;6.43;;;4.30;99.90;;;;;;4870290;29;20481;-94
2021/01/01 14:47:16;;;;;;;7.53;6.73;;;4.30;99.90;;;;;;4867558;29;20446;-90
2021/01/01 14:49:42;;;;;;;11.37;7.93;;;4.20;99.90;;;;;;4862921;29;20676;-88
2021/01/01 14:52:08;;;;;;;9.73;7.50;;;4.10;99.90;;;;;;4860447;29;20217;-87
2021/01/01 14:54:33;;;;;;;9.83;7.80;;;4.10;99.90;;;;;;4865350;29;20202;-88
2021/01/01 14:57:00;;;;;;;8.30;7.17;;;4.20;99.90;;;;;;4861850;29;20319;-90
2021/01/01 14:59:26;;;;;;;11.37;6.70;;;4.20;99.90;;;;;;4863724;29;20257;-88
2021/01/01 15:01:51;;;;;;;8.23;6.70;;;4.10;99.90;;;;;;4862064;29;20843;-86
2021/01/01 15:04:17;;;;;;;9.33;6.90;;;4.10;99.90;;;;;;4862243;29;20220;-87
2021/01/01 15:06:43;;;;;;;9.53;7.20;;;4.00;99.90;;;;;;4863548;29;20205;-86
2021/01/01 15:09:09;;;;;;;9.37;7.17;;;3.90;99.90;;;;;;4863311;29;20193;-88
2021/01/01 15:11:35;;;;;;;8.27;7.17;;;3.80;99.90;;;;;;4863022;29;20843;-88
2021/01/01 15:14:06;;;;;;;9.90;6.97;;;3.70;99.90;;;;;;4848592;29;20484;-88
2021/01/01 15:16:43;;;;;;;7.70;6.70;;;3.80;99.90;;;;;;4863496;29;20629;-88
2021/01/01 15:19:12;;;;;;;8.70;6.70;;;3.70;99.90;;;;;;4863663;29;20516;-88
2021/01/01 15:21:42;;;;;;;11.07;7.47;;;3.70;99.90;;;;;;4860943;29;20510;-88
2021/01/01 15:24:09;;;;;;;9.00;7.17;;;3.60;99.90;;;;;;4862728;29;20905;-87
2021/01/01 15:26:39;;;;;;;9.23;7.07;;;3.60;99.90;;;;;;4874220;29;20470;-87
2021/01/01 15:29:05;;;;;;;8.63;7.00;;;3.50;99.90;;;;;;4860696;29;20541;-88
2021/01/01 15:31:31;;;;;;;9.70;7.23;;;3.50;99.90;;;;;;4863357;29;20967;-88
2021/01/01 15:33:57;;;;;;;7.80;6.80;;;3.40;99.90;;;;;;4860512;29;20449;-88
2021/01/01 15:36:23;;;;;;;8.90;7.60;;;3.40;99.90;;;;;;4861820;29;20462;-88
2021/01/01 15:38:48;;;;;;;11.43;8.70;;;3.30;99.90;;;;;;4862023;29;20450;-88
2021/01/01 15:41:15;;;;;;;18.00;14.47;;;3.20;99.90;;;;;;4862663;29;20602;-88
2021/01/01 15:43:42;;;;;;;17.97;13.37;;;3.20;99.90;;;;;;4860949;29;21511;-88
2021/01/01 15:46:09;;;;;;;11.23;8.87;;;3.10;99.90;;;;;;4863537;29;20457;-86
2021/01/01 15:48:35;;;;;;;12.87;10.77;;;3.00;99.90;;;;;;4859862;29;20900;-87
2021/01/01 15:51:00;;;;;;;12.43;10.70;;;2.90;99.90;;;;;;4855724;29;20910;-87
2021/01/01 15:53:26;;;;;;;11.30;9.27;;;2.80;99.90;;;;;;4861310;29;20968;-86
2021/01/01 15:55:52;;;;;;;12.43;9.93;;;2.70;99.90;;;;;;4860840;29;20609;-87
2021/01/01 15:58:17;;;;;;;12.17;9.07;;;2.70;99.90;;;;;;4861896;29;21135;-88
2021/01/01 16:01:18;;;;;;;13.53;11.73;;;2.60;99.90;;;;;;4858664;29;20607;-89
2021/01/01 16:03:49;;;;;;;12.90;10.43;;;2.50;99.90;;;;;;4826782;29;21198;-88
2021/01/01 16:06:15;;;;;;;20.03;15.57;;;2.40;99.90;;;;;;4860988;29;20813;-89
2021/01/01 16:08:45;;;;;;;23.73;17.73;;;2.30;99.90;;;;;;4864161;29;20422;-89
2021/01/01 16:11:33;;;;;;;15.60;11.77;;;2.30;99.90;;;;;;4861304;29;20567;-88
2021/01/01 16:14:04;;;;;;;11.37;9.53;;;2.20;99.90;;;;;;4860971;29;20510;-87
2021/01/01 16:16:37;;;;;;;10.90;7.40;;;2.20;99.90;;;;;;4861465;29;20451;-88
2021/01/01 16:19:28;;;;;;;9.23;7.63;;;2.10;99.90;;;;;;4857629;29;20457;-89
2021/01/01 16:21:54;;;;;;;9.70;7.10;;;2.00;99.90;;;;;;4863674;29;20451;-89
2021/01/01 16:24:23;;;;;;;8.27;6.90;;;2.00;99.90;;;;;;4861876;29;20440;-88
2021/01/01 16:26:49;;;;;;;8.23;6.80;;;1.90;99.90;;;;;;4860713;29;20215;-88
2021/01/01 16:29:22;;;;;;;7.03;6.20;;;1.80;99.90;;;;;;4859991;29;21538;-90
2021/01/01 16:31:48;;;;;;;9.10;7.13;;;1.80;99.90;;;;;;4859964;29;20467;-90
2021/01/01 16:34:16;;;;;;;9.13;7.10;;;1.70;99.90;;;;;;4858889;29;21024;-88
2021/01/01 16:36:42;;;;;;;17.00;11.27;;;1.70;99.90;;;;;;4862033;29;20439;-89
2021/01/01 16:39:12;;;;;;;13.33;9.87;;;1.70;99.90;;;;;;4864099;29;20818;-88
2021/01/01 16:41:44;;;;;;;10.63;7.80;;;1.70;99.90;;;;;;4860386;29;20519;-90
2021/01/01 16:44:12;;;;;;;8.13;6.40;;;1.60;99.90;;;;;;4857551;29;20782;-88
2021/01/01 16:46:39;;;;;;;8.03;6.07;;;1.50;99.90;;;;;;4861757;29;20446;-91
2021/01/01 16:49:09;;;;;;;7.87;6.47;;;1.50;99.90;;;;;;4861683;29;20469;-89
2021/01/01 16:51:54;;;;;;;6.30;5.30;;;1.40;99.90;;;;;;4859415;29;20458;-89
2021/01/01 16:54:21;;;;;;;8.47;6.93;;;1.40;99.90;;;;;;4858434;29;20454;-89
2021/01/01 16:56:55;;;;;;;7.77;6.63;;;1.30;99.90;;;;;;4857368;29;20197;-91
2021/01/01 16:59:21;;;;;;;9.80;7.17;;;1.30;99.90;;;;;;4862137;29;20476;-89
2021/01/01 17:01:57;;;;;;;8.30;6.60;;;1.30;99.90;;;;;;4862789;29;20454;-93
2021/01/01 17:04:28;;;;;;;10.00;7.00;;;1.30;99.90;;;;;;4862088;29;20194;-91
2021/01/01 17:06:59;;;;;;;9.60;7.17;;;1.30;99.90;;;;;;4858994;29;20455;-91
2021/01/01 17:09:31;;;;;;;8.17;6.90;;;1.40;99.90;;;;;;4862259;29;20466;-93
2021/01/01 17:11:58;;;;;;;8.27;6.87;;;1.40;99.90;;;;;;4847970;29;20471;-91
2021/01/01 17:14:25;;;;;;;9.63;7.17;;;1.50;99.90;;;;;;4858453;29;20513;-91
2021/01/01 17:16:55;;;;;;;12.30;8.03;;;1.50;99.90;;;;;;4861208;29;20521;-93
2021/01/01 17:19:22;;;;;;;8.83;7.70;;;1.60;99.90;;;;;;4863266;29;20470;-90
2021/01/01 17:22:09;;;;;;;10.03;8.07;;;1.50;99.90;;;;;;4850475;29;20471;-91
2021/01/01 17:24:38;;;;;;;8.70;7.80;;;1.50;99.90;;;;;;4859946;29;20442;-92
2021/01/01 17:27:23;;;;;;;11.77;9.10;;;1.50;99.90;;;;;;4859463;29;21422;-93
2021/01/01 17:29:50;;;;;;;11.07;8.60;;;1.30;99.90;;;;;;4859948;29;20458;-92
2021/01/01 17:32:15;;;;;;;10.43;7.80;;;1.20;99.90;;;;;;4860326;29;20249;-90
2021/01/01 17:34:43;;;;;;;10.50;7.37;;;1.00;99.90;;;;;;4862895;29;20454;-87
2021/01/01 17:37:08;;;;;;;11.47;8.00;;;1.10;99.90;;;;;;4860589;29;20212;-91
2021/01/01 17:39:34;;;;;;;9.40;7.63;;;1.10;99.90;;;;;;4860496;29;20995;-88
2021/01/01 17:42:02;;;;;;;9.67;7.70;;;1.10;99.90;;;;;;4856241;29;20339;-90
2021/01/01 17:44:29;;;;;;;8.53;7.63;;;1.00;99.90;;;;;;4864526;29;20221;-91
2021/01/01 17:47:00;;;;;;;8.17;7.10;;;1.00;99.90;;;;;;4864267;29;20472;-88
2021/01/01 17:49:26;;;;;;;10.40;6.97;;;1.00;99.90;;;;;;4863547;29;20509;-89
2021/01/01 17:51:54;;;;;;;7.37;6.63;;;1.00;99.90;;;;;;4865605;29;20474;-88
2021/01/01 17:54:20;;;;;;;7.83;6.57;;;1.00;99.90;;;;;;4866849;29;20556;-90
2021/01/01 17:56:47;;;;;;;8.10;6.70;;;1.00;99.90;;;;;;4866520;29;20445;-91
2021/01/01 17:59:13;;;;;;;9.73;7.30;;;1.00;99.90;;;;;;4862721;29;20428;-90
2021/01/01 18:01:39;;;;;;;7.53;6.67;;;1.00;99.90;;;;;;4862376;29;20543;-89
2021/01/01 18:04:05;;;;;;;7.90;6.70;;;0.90;99.90;;;;;;4865743;29;20450;-91
2021/01/01 18:06:30;;;;;;;10.63;8.20;;;0.90;99.90;;;;;;4862784;29;20198;-90
2021/01/01 18:08:56;;;;;;;10.13;7.20;;;0.90;99.90;;;;;;4864635;29;20197;-90
2021/01/01 18:11:25;;;;;;;10.30;6.70;;;0.90;99.90;;;;;;4864655;29;20193;-88
2021/01/01 18:13:51;;;;;;;10.93;8.37;;;0.90;99.90;;;;;;4866606;29;20543;-91
2021/01/01 18:16:21;;;;;;;10.83;8.07;;;0.80;99.90;;;;;;4864441;29;20462;-88
2021/01/01 18:18:46;;;;;;;8.93;7.30;;;0.80;99.90;;;;;;4864109;29;20197;-89
2021/01/01 18:21:12;;;;;;;10.10;7.63;;;0.80;99.90;;;;;;4866004;29;20497;-88
2021/01/01 18:23:39;;;;;;;7.90;6.67;;;0.70;99.90;;;;;;4863099;29;20197;-88
2021/01/01 18:26:07;;;;;;;9.43;7.53;;;0.80;99.90;;;;;;4864243;29;20474;-88
2021/01/01 18:28:39;;;;;;;9.43;7.07;;;0.80;99.90;;;;;;4862614;29;20473;-89
2021/01/01 18:31:08;;;;;;;9.50;7.07;;;0.70;99.90;;;;;;4862531;29;20486;-89
2021/01/01 18:33:38;;;;;;;8.40;6.50;;;0.70;99.90;;;;;;4863798;29;20453;-88
2021/01/01 18:36:05;;;;;;;8.67;6.90;;;0.70;99.90;;;;;;4863273;29;20494;-87
2021/01/01 18:38:53;;;;;;;10.47;7.60;;;0.70;99.90;;;;;;4864619;29;20803;-88
2021/01/01 18:41:21;;;;;;;10.33;7.20;;;0.60;99.90;;;;;;4864431;29;20500;-88
2021/01/01 18:44:15;;;;;;;10.07;7.80;;;0.70;99.90;;;;;;4861693;29;21917;-86
2021/01/01 18:47:02;;;;;;;9.50;7.40;;;0.60;99.90;;;;;;4863242;29;20450;-87
2021/01/01 18:49:27;;;;;;;11.40;9.40;;;0.50;99.90;;;;;;4860858;29;20451;-87
2021/01/01 18:52:00;;;;;;;11.73;9.13;;;0.40;99.90;;;;;;4863252;29;20919;-85
2021/01/01 18:54:36;;;;;;;12.33;8.70;;;0.40;99.90;;;;;;4865657;29;20255;-87
2021/01/01 18:57:14;;;;;;;12.87;8.73;;;0.40;99.90;;;;;;4863039;29;20445;-87
2021/01/01 19:00:04;;;;;;;13.37;8.80;;;0.40;99.90;;;;;;4864001;29;20860;-86
2021/01/01 19:02:30;;;;;;;14.20;9.50;;;0.50;99.90;;;;;;4859869;29;20458;-86
2021/01/01 19:05:22;;;;;;;12.87;8.50;;;0.60;99.90;;;;;;4862627;29;20454;-88
2021/01/01 19:07:52;;;;;;;14.00;9.60;;;0.50;99.90;;;;;;4863117;29;20210;-86
2021/01/01 19:10:19;;;;;;;14.27;8.80;;;0.50;99.90;;;;;;4859080;29;20462;-86
2021/01/01 19:13:18;;;;;;;11.70;8.53;;;0.50;99.90;;;;;;4845204;29;20538;-88
2021/01/01 19:15:45;;;;;;;9.57;7.03;;;0.50;99.90;;;;;;4862510;29;20450;-89
2021/01/01 19:18:31;;;;;;;11.07;8.20;;;0.50;99.90;;;;;;4860617;29;20534;-86
2021/01/01 19:20:58;;;;;;;9.43;7.80;;;0.40;99.90;;;;;;4858810;29;20951;-86
2021/01/01 19:23:33;;;;;;;11.90;7.93;;;0.40;99.90;;;;;;4862399;29;20506;-86
2021/01/01 19:26:08;;;;;;;12.60;8.70;;;0.50;99.90;;;;;;4861684;29;20556;-87
2021/01/01 19:29:03;;;;;;;8.93;7.60;;;0.50;99.90;;;;;;4859904;29;20446;-87
2021/01/01 19:31:36;;;;;;;9.00;7.33;;;0.50;99.90;;;;;;4863714;29;21412;-88
2021/01/01 19:34:51;;;;;;;8.83;7.43;;;0.40;99.90;;;;;;4863101;29;20454;-92
2021/01/01 19:38:07;;;;;;;9.70;8.00;;;0.50;99.90;;;;;;4860618;29;20463;-91
2021/01/01 19:41:21;;;;;;;10.63;7.70;;;0.40;99.90;;;;;;4838551;29;20494;-90
2021/01/01 19:44:32;;;;;;;12.00;9.03;;;0.30;99.90;;;;;;4862577;29;20462;-89
2021/01/01 19:47:10;;;;;;;12.07;8.97;;;0.30;99.90;;;;;;4861741;29;20481;-88
2021/01/01 19:50:09;;;;;;;10.53;8.00;;;0.30;99.90;;;;;;4860114;29;20557;-88
2021/01/01 19:52:38;;;;;;;9.20;7.50;;;0.30;99.90;;;;;;4860998;29;20546;-88
2021/01/01 19:55:05;;;;;;;11.60;8.67;;;0.30;99.90;;;;;;4861607;29;20463;-87
2021/01/01 19:57:52;;;;;;;13.03;8.30;;;0.30;99.90;;;;;;4859467;29;20486;-87
2021/01/01 20:00:41;;;;;;;11.73;7.87;;;0.30;99.90;;;;;;4859661;29;20968;-88
2021/01/01 20:03:31;;;;;;;17.57;10.93;;;0.20;99.90;;;;;;4858799;29;20446;-91
2021/01/01 20:06:02;;;;;;;16.03;9.27;;;0.20;99.90;;;;;;4861677;29;20476;-86
2021/01/01 20:08:40;;;;;;;10.03;8.73;;;0.20;99.90;;;;;;4857551;29;20514;-87
2021/01/01 20:11:24;;;;;;;10.37;7.97;;;0.20;99.90;;;;;;4859853;29;20951;-88
2021/01/01 20:13:50;;;;;;;11.23;8.13;;;0.20;99.90;;;;;;4859574;29;20536;-88
2021/01/01 20:16:16;;;;;;;9.80;8.10;;;0.20;99.90;;;;;;4861259;29;20645;-89
2021/01/01 20:18:44;;;;;;;15.70;10.13;;;0.20;99.90;;;;;;4859437;29;20455;-85
2021/01/01 20:21:11;;;;;;;12.50;8.60;;;0.10;99.90;;;;;;4860046;29;20798;-85
2021/01/01 20:23:42;;;;;;;10.80;8.47;;;0.10;99.90;;;;;;4864394;29;20806;-85
2021/01/01 20:26:08;;;;;;;10.07;8.00;;;0.20;99.90;;;;;;4863888;29;21016;-85
2021/01/01 20:28:41;;;;;;;12.80;8.03;;;0.10;99.90;;;;;;4861460;29;20447;-84
2021/01/01 20:31:08;;;;;;;11.80;9.67;;;0.10;99.90;;;;;;4865587;29;21020;-86
2021/01/01 20:33:53;;;;;;;10.87;8.20;;;0.10;99.90;;;;;;4849157;29;20439;-86
2021/01/01 20:36:34;;;;;;;8.90;7.90;;;0.10;99.90;;;;;;4863956;29;20549;-89
2021/01/01 20:39:18;;;;;;;11.87;9.10;;;0.10;99.90;;;;;;4863895;29;20465;-85
2021/01/01 20:42:04;;;;;;;13.23;9.93;;;0.10;99.90;;;;;;4865282;29;20458;-86
2021/01/01 20:44:53;;;;;;;13.20;10.67;;;0.00;99.90;;;;;;4864534;29;20461;-85
2021/01/01 20:56:00;;;;;;;15.33;10.60;;;0.10;99.90;;;;;;4868786;29;20538;-85
2021/01/01 20:58:29;;;;;;;16.57;11.70;;;0.20;99.90;;;;;;4866655;29;20442;-87
2021/01/01 21:00:55;;;;;;;13.57;11.00;;;0.30;99.90;;;;;;4866679;29;20481;-88
2021/01/01 21:03:22;;;;;;;15.07;11.70;;;0.30;99.90;;;;;;4867394;29;20453;-86
2021/01/01 21:05:54;;;;;;;15.87;11.13;;;0.40;99.90;;;;;;4865608;29;20450;-86
2021/01/01 21:08:38;;;;;;;15.00;11.20;;;0.40;99.90;;;;;;4863022;29;20825;-87
2021/01/01 21:11:26;;;;;;;15.70;11.80;;;0.30;99.90;;;;;;4865153;29;20498;-87
2021/01/01 21:14:23;;;;;;;16.00;11.70;;;0.30;99.90;;;;;;4866128;29;20454;-88
2021/01/01 21:17:04;;;;;;;13.50;11.13;;;0.40;99.90;;;;;;4866836;29;20805;-89
2021/01/01 21:19:54;;;;;;;13.10;9.57;;;0.40;99.90;;;;;;4865224;29;20450;-88
2021/01/01 21:22:42;;;;;;;17.60;11.33;;;0.40;99.90;;;;;;4868809;29;20592;-87
2021/01/01 21:25:34;;;;;;;15.70;12.00;;;0.40;99.90;;;;;;4871616;29;20430;-89
2021/01/01 21:28:21;;;;;;;14.23;10.50;;;0.50;99.90;;;;;;4833164;29;20443;-90
2021/01/01 21:31:08;;;;;;;15.63;10.47;;;0.50;99.90;;;;;;4870519;29;20481;-88
2021/01/01 21:33:43;;;;;;;17.00;12.00;;;0.50;99.90;;;;;;4868988;29;20534;-88
2021/01/01 21:36:34;;;;;;;15.07;11.67;;;0.50;99.90;;;;;;4869755;29;20525;-87
2021/01/01 21:40:01;;;;;;;17.03;11.80;;;0.60;99.90;;;;;;4868042;29;20446;-87
2021/01/01 21:42:40;;;;;;;16.90;12.00;;;0.60;99.90;;;;;;4821642;29;20479;-88
2021/01/01 21:45:39;;;;;;;16.60;12.33;;;0.60;99.90;;;;;;4868852;29;20454;-90
2021/01/01 21:48:24;;;;;;;15.77;12.50;;;0.50;99.90;;;;;;4869649;29;20909;-87
2021/01/01 21:51:17;;;;;;;16.17;12.97;;;0.40;99.90;;;;;;4870105;29;20887;-89
2021/01/01 21:53:43;;;;;;;19.10;14.00;;;0.50;99.90;;;;;;4870285;29;20454;-91
2021/01/01 21:56:20;;;;;;;19.73;13.20;;;0.50;99.90;;;;;;4869586;29;20450;-88
2021/01/01 21:58:49;;;;;;;16.40;12.80;;;0.50;99.90;;;;;;4870809;29;20481;-87
2021/01/01 22:01:20;;;;;;;17.97;12.57;;;0.50;99.90;;;;;;4870134;29;21926;-91
2021/01/01 22:03:57;;;;;;;25.53;15.17;;;0.40;99.90;;;;;;4870256;29;20478;-92
2021/01/01 22:06:28;;;;;;;20.50;15.40;;;0.40;99.90;;;;;;4870368;29;20463;-92
2021/01/01 22:09:06;;;;;;;19.60;14.83;;;0.40;99.90;;;;;;4866540;29;20537;-90
2021/01/01 22:11:48;;;;;;;21.90;15.50;;;0.40;99.90;;;;;;4866382;29;20453;-91
2021/01/01 22:14:16;;;;;;;18.57;13.97;;;0.30;99.90;;;;;;4869566;29;20480;-90
2021/01/01 22:16:55;;;;;;;18.67;14.30;;;0.30;99.90;;;;;;4854698;29;20996;-92
2021/01/01 22:19:30;;;;;;;19.10;12.53;;;0.30;99.90;;;;;;4868069;29;20454;-89
2021/01/01 22:21:56;;;;;;;16.50;12.07;;;0.20;99.90;;;;;;4867085;29;20519;-91
2021/01/01 22:24:22;;;;;;;19.23;13.87;;;0.20;99.90;;;;;;4869981;29;20465;-90
2021/01/01 22:26:53;;;;;;;18.07;13.93;;;0.00;99.90;;;;;;4869954;29;20434;-90
2021/01/01 22:29:19;;;;;;;16.60;12.60;;;0.00;99.90;;;;;;4868774;29;20500;-89
2021/01/01 22:31:45;;;;;;;20.20;13.03;;;0.00;99.90;;;;;;4868384;29;20504;-91
2021/01/01 22:34:11;;;;;;;18.03;12.70;;;0.00;99.90;;;;;;4870837;29;20586;-90
2021/01/01 22:36:41;;;;;;;17.83;12.73;;;0.00;99.90;;;;;;4869437;29;20840;-91
2021/01/01 22:39:08;;;;;;;19.63;13.27;;;0.00;99.90;;;;;;4869518;29;20462;-90
2021/01/01 22:41:34;;;;;;;32.23;15.63;;;0.10;99.90;;;;;;4870818;29;20434;-90
2021/01/01 22:44:00;;;;;;;95.60;17.67;;;0.10;99.90;;;;;;4871141;29;20633;-90
2021/01/01 22:46:26;;;;;;;119.57;20.20;;;0.10;99.90;;;;;;4871381;29;20646;-90
2021/01/01 22:48:51;;;;;;;51.30;17.40;;;0.00;99.90;;;;;;4869326;29;21003;-90
2021/01/01 22:51:17;;;;;;;27.10;17.20;;;0.00;99.90;;;;;;4870161;29;20233;-91
2021/01/01 22:53:43;;;;;;;28.67;17.90;;;0.00;99.90;;;;;;4870490;29;20231;-90
2021/01/01 22:56:22;;;;;;;157.63;23.37;;;0.00;99.90;;;;;;4870494;29;20289;-92
2021/01/01 22:59:14;;;;;;;86.00;19.60;;;-0.10;99.90;;;;;;4868875;29;20438;-91
2021/01/01 23:01:42;;;;;;;73.73;19.47;;;-0.10;99.90;;;;;;4883263;29;20514;-92
2021/01/01 23:04:10;;;;;;;28.03;16.90;;;-0.20;99.90;;;;;;4871346;29;20445;-92
2021/01/01 23:06:40;;;;;;;101.60;21.13;;;-0.30;99.90;;;;;;4872069;29;20507;-91
2021/01/01 23:09:08;;;;;;;56.90;17.07;;;-0.30;99.90;;;;;;4869877;29;20516;-92
2021/01/01 23:11:37;;;;;;;46.93;19.53;;;-0.30;99.90;;;;;;4871866;29;20469;-93
2021/01/01 23:14:03;;;;;;;91.07;21.73;;;-0.40;99.90;;;;;;4872325;29;21031;-92
2021/01/01 23:16:29;;;;;;;56.90;20.17;;;-0.30;99.90;;;;;;4876209;29;20529;-93
2021/01/01 23:19:00;;;;;;;35.03;18.50;;;-0.30;99.90;;;;;;4873019;29;20190;-91
2021/01/01 23:21:29;;;;;;;49.50;19.90;;;-0.30;99.90;;;;;;4873896;29;20438;-93
2021/01/01 23:23:59;;;;;;;43.43;20.70;;;-0.30;99.90;;;;;;4870247;29;20446;-92
2021/01/01 23:26:45;;;;;;;65.80;23.60;;;-0.30;99.90;;;;;;4870236;29;20848;-92
2021/01/01 23:29:34;;;;;;;55.13;20.97;;;-0.30;99.90;;;;;;4870623;29;20493;-94
2021/01/01 23:32:49;;;;;;;43.10;19.50;;;-0.20;99.90;;;;;;4870157;29;20453;-92
2021/01/01 23:35:18;;;;;;;29.17;18.20;;;-0.20;99.90;;;;;;4869945;29;20464;-94
2021/01/01 23:38:21;;;;;;;76.03;21.40;;;-0.30;99.90;;;;;;4870259;29;20510;-93
2021/01/01 23:40:50;;;;;;;35.10;19.30;;;-0.30;99.90;;;;;;4872314;29;20438;-94
2021/01/01 23:43:20;;;;;;;26.70;17.30;;;-0.40;99.90;;;;;;4869713;29;20458;-91
2021/01/01 23:45:50;;;;;;;25.10;18.50;;;-0.40;99.90;;;;;;4869280;29;20453;-91
2021/01/01 23:48:22;;;;;;;29.03;19.50;;;-0.50;99.90;;;;;;4869934;29;20419;-91
2021/01/01 23:50:56;;;;;;;30.67;17.67;;;-0.50;99.90;;;;;;4869956;29;20489;-91
2021/01/01 23:53:27;;;;;;;35.57;18.30;;;-0.70;99.90;;;;;;4868374;29;20993;-90
2021/01/01 23:55:56;;;;;;;22.63;17.03;;;-0.70;99.90;;;;;;4869644;29;20793;-93
2021/01/01 23:58:23;;;;;;;25.60;16.83;;;-0.80;99.90;;;;;;4869959;29;20454;-91
